sensor_id;sensor_type;location;lat;lon;timestamp;P1;durP1;ratioP1;P2;durP2;ratioP2
60464;SDS011;46314;52.392;9.758;2022-12-29T00:00:53;2.38;;;1.95;;
60464;SDS011;46314;52.392;9.758;2022-12-29T00:03:19;3.15;;;1.98;;
60464;SDS011;46314;52.392;9.758;2022-12-29T00:05:50;2.85;;;1.60;;
60464;SDS011;46314;52.392;9.758;2022-12-29T00:08:20;2.28;;;1.90;;
60464;SDS011;46314;52.392;9.758;2022-12-29T00:10:46;2.22;;;1.85;;
60464;SDS011;46314;52.392;9.758;2022-12-29T00:13:14;2.72;;;1.70;;
60464;SDS011;46314;52.392;9.758;2022-12-29T00:15:40;2.78;;;1.85;;
60464;SDS011;46314;52.392;9.758;2022-12-29T00:18:07;2.03;;;1.52;;
60464;SDS011;46314;52.392;9.758;2022-12-29T00:20:34;2.78;;;1.63;;
60464;SDS011;46314;52.392;9.758;2022-12-29T00:23:01;2.95;;;1.60;;
60464;SDS011;46314;52.392;9.758;2022-12-29T00:25:27;3.63;;;1.80;;
60464;SDS011;46314;52.392;9.758;2022-12-29T00:27:54;4.53;;;1.88;;
60464;SDS011;46314;52.392;9.758;2022-12-29T00:30:22;2.20;;;1.55;;
60464;SDS011;46314;52.392;9.758;2022-12-29T00:32:49;4.50;;;1.65;;
60464;SDS011;46314;52.392;9.758;2022-12-29T00:35:21;2.88;;;1.50;;
60464;SDS011;46314;52.392;9.758;2022-12-29T00:37:51;2.50;;;1.40;;
60464;SDS011;46314;52.392;9.758;2022-12-29T00:40:18;1.80;;;1.42;;
60464;SDS011;46314;52.392;9.758;2022-12-29T00:42:46;1.95;;;1.50;;
60464;SDS011;46314;52.392;9.758;2022-12-29T00:45:13;4.47;;;1.70;;
60464;SDS011;46314;52.392;9.758;2022-12-29T00:47:40;2.63;;;1.52;;
60464;SDS011;46314;52.392;9.758;2022-12-29T00:50:07;2.90;;;1.40;;
60464;SDS011;46314;52.392;9.758;2022-12-29T00:52:34;1.80;;;1.38;;
60464;SDS011;46314;52.392;9.758;2022-12-29T00:55:00;2.00;;;1.45;;
60464;SDS011;46314;52.392;9.758;2022-12-29T00:57:26;1.95;;;1.55;;
60464;SDS011;46314;52.392;9.758;2022-12-29T00:59:53;2.08;;;1.67;;
60464;SDS011;46314;52.392;9.758;2022-12-29T01:02:19;2.72;;;1.50;;
60464;SDS011;46314;52.392;9.758;2022-12-29T01:04:47;2.60;;;1.80;;
60464;SDS011;46314;52.392;9.758;2022-12-29T01:07:13;2.03;;;1.38;;
60464;SDS011;46314;52.392;9.758;2022-12-29T01:09:40;1.90;;;1.60;;
60464;SDS011;46314;52.392;9.758;2022-12-29T01:12:07;2.22;;;1.40;;
60464;SDS011;46314;52.392;9.758;2022-12-29T01:14:34;1.77;;;1.27;;
60464;SDS011;46314;52.392;9.758;2022-12-29T01:17:01;2.35;;;1.10;;
60464;SDS011;46314;52.392;9.758;2022-12-29T01:19:27;2.47;;;1.80;;
60464;SDS011;46314;52.392;9.758;2022-12-29T01:21:55;3.47;;;1.45;;
60464;SDS011;46314;52.392;9.758;2022-12-29T01:24:22;3.08;;;1.50;;
60464;SDS011;46314;52.392;9.758;2022-12-29T01:26:48;1.95;;;1.48;;
60464;SDS011;46314;52.392;9.758;2022-12-29T01:29:15;2.60;;;1.85;;
60464;SDS011;46314;52.392;9.758;2022-12-29T01:31:43;1.83;;;1.50;;
60464;SDS011;46314;52.392;9.758;2022-12-29T01:34:09;1.85;;;1.35;;
60464;SDS011;46314;52.392;9.758;2022-12-29T01:36:36;1.38;;;1.25;;
60464;SDS011;46314;52.392;9.758;2022-12-29T01:39:04;2.67;;;1.63;;
60464;SDS011;46314;52.392;9.758;2022-12-29T01:41:30;2.55;;;1.30;;
60464;SDS011;46314;52.392;9.758;2022-12-29T01:43:57;2.58;;;1.60;;
60464;SDS011;46314;52.392;9.758;2022-12-29T01:46:25;1.85;;;1.30;;
60464;SDS011;46314;52.392;9.758;2022-12-29T01:48:55;1.70;;;1.30;;
60464;SDS011;46314;52.392;9.758;2022-12-29T01:51:26;3.17;;;1.27;;
60464;SDS011;46314;52.392;9.758;2022-12-29T01:53:54;1.92;;;1.20;;
60464;SDS011;46314;52.392;9.758;2022-12-29T01:56:24;2.20;;;1.40;;
60464;SDS011;46314;52.392;9.758;2022-12-29T01:58:53;2.45;;;1.60;;
60464;SDS011;46314;52.392;9.758;2022-12-29T02:01:24;2.13;;;1.00;;
60464;SDS011;46314;52.392;9.758;2022-12-29T02:03:51;3.40;;;1.40;;
60464;SDS011;46314;52.392;9.758;2022-12-29T02:06:19;1.83;;;1.42;;
60464;SDS011;46314;52.392;9.758;2022-12-29T02:08:49;1.90;;;1.20;;
60464;SDS011;46314;52.392;9.758;2022-12-29T02:11:18;1.98;;;1.30;;
60464;SDS011;46314;52.392;9.758;2022-12-29T02:13:47;1.95;;;1.50;;
60464;SDS011;46314;52.392;9.758;2022-12-29T02:16:16;2.20;;;1.20;;
60464;SDS011;46314;52.392;9.758;2022-12-29T02:18:58;1.25;;;1.00;;
60464;SDS011;46314;52.392;9.758;2022-12-29T02:21:41;1.58;;;1.27;;
60464;SDS011;46314;52.392;9.758;2022-12-29T02:24:29;2.90;;;1.33;;
60464;SDS011;46314;52.392;9.758;2022-12-29T02:27:26;3.70;;;1.20;;
60464;SDS011;46314;52.392;9.758;2022-12-29T02:30:08;1.52;;;1.27;;
60464;SDS011;46314;52.392;9.758;2022-12-29T02:32:47;2.00;;;1.38;;
60464;SDS011;46314;52.392;9.758;2022-12-29T02:35:22;3.53;;;1.10;;
60464;SDS011;46314;52.392;9.758;2022-12-29T02:37:57;1.75;;;1.00;;
60464;SDS011;46314;52.392;9.758;2022-12-29T02:40:30;2.08;;;1.05;;
60464;SDS011;46314;52.392;9.758;2022-12-29T02:43:04;1.83;;;1.40;;
60464;SDS011;46314;52.392;9.758;2022-12-29T02:45:42;1.60;;;1.30;;
60464;SDS011;46314;52.392;9.758;2022-12-29T02:48:16;2.92;;;1.85;;
60464;SDS011;46314;52.392;9.758;2022-12-29T02:50:51;4.40;;;1.10;;
60464;SDS011;46314;52.392;9.758;2022-12-29T02:53:22;1.30;;;1.20;;
60464;SDS011;46314;52.392;9.758;2022-12-29T02:55:51;2.38;;;1.35;;
60464;SDS011;46314;52.392;9.758;2022-12-29T02:58:18;1.90;;;1.38;;
60464;SDS011;46314;52.392;9.758;2022-12-29T03:00:49;1.15;;;0.80;;
60464;SDS011;46314;52.392;9.758;2022-12-29T03:03:35;1.40;;;1.15;;
60464;SDS011;46314;52.392;9.758;2022-12-29T03:06:21;1.30;;;1.20;;
60464;SDS011;46314;52.392;9.758;2022-12-29T03:11:27;1.33;;;1.23;;
60464;SDS011;46314;52.392;9.758;2022-12-29T03:14:02;2.13;;;1.00;;
60464;SDS011;46314;52.392;9.758;2022-12-29T03:16:35;1.15;;;0.90;;
60464;SDS011;46314;52.392;9.758;2022-12-29T03:19:13;1.27;;;1.05;;
60464;SDS011;46314;52.392;9.758;2022-12-29T03:21:44;1.30;;;1.10;;
60464;SDS011;46314;52.392;9.758;2022-12-29T03:24:16;2.88;;;1.30;;
60464;SDS011;46314;52.392;9.758;2022-12-29T03:26:45;1.58;;;0.80;;
60464;SDS011;46314;52.392;9.758;2022-12-29T03:29:14;2.33;;;0.98;;
60464;SDS011;46314;52.392;9.758;2022-12-29T03:31:44;2.78;;;1.10;;
60464;SDS011;46314;52.392;9.758;2022-12-29T03:34:12;3.88;;;1.38;;
60464;SDS011;46314;52.392;9.758;2022-12-29T03:36:43;1.52;;;1.17;;
60464;SDS011;46314;52.392;9.758;2022-12-29T03:39:13;1.77;;;1.20;;
60464;SDS011;46314;52.392;9.758;2022-12-29T03:41:41;3.63;;;1.30;;
60464;SDS011;46314;52.392;9.758;2022-12-29T03:44:09;1.25;;;1.05;;
60464;SDS011;46314;52.392;9.758;2022-12-29T03:46:36;1.52;;;1.02;;
60464;SDS011;46314;52.392;9.758;2022-12-29T03:49:03;2.88;;;1.00;;
60464;SDS011;46314;52.392;9.758;2022-12-29T03:51:31;1.30;;;0.90;;
60464;SDS011;46314;52.392;9.758;2022-12-29T03:53:57;2.25;;;1.35;;
60464;SDS011;46314;52.392;9.758;2022-12-29T03:56:23;0.90;;;0.80;;
60464;SDS011;46314;52.392;9.758;2022-12-29T03:58:50;2.17;;;1.05;;
60464;SDS011;46314;52.392;9.758;2022-12-29T04:01:16;2.80;;;1.50;;
60464;SDS011;46314;52.392;9.758;2022-12-29T04:03:43;1.27;;;0.82;;
60464;SDS011;46314;52.392;9.758;2022-12-29T04:06:10;1.75;;;0.95;;
60464;SDS011;46314;52.392;9.758;2022-12-29T04:08:37;2.25;;;1.00;;
60464;SDS011;46314;52.392;9.758;2022-12-29T04:11:04;1.65;;;0.82;;
60464;SDS011;46314;52.392;9.758;2022-12-29T04:13:30;1.35;;;0.68;;
60464;SDS011;46314;52.392;9.758;2022-12-29T04:15:57;3.05;;;1.15;;
60464;SDS011;46314;52.392;9.758;2022-12-29T04:18:24;1.05;;;0.85;;
60464;SDS011;46314;52.392;9.758;2022-12-29T04:20:50;1.08;;;0.80;;
60464;SDS011;46314;52.392;9.758;2022-12-29T04:23:17;0.82;;;0.50;;
60464;SDS011;46314;52.392;9.758;2022-12-29T04:25:46;0.60;;;0.60;;
60464;SDS011;46314;52.392;9.758;2022-12-29T04:28:12;1.45;;;0.70;;
60464;SDS011;46314;52.392;9.758;2022-12-29T04:30:39;1.00;;;0.60;;
60464;SDS011;46314;52.392;9.758;2022-12-29T04:33:06;0.60;;;0.60;;
60464;SDS011;46314;52.392;9.758;2022-12-29T04:35:32;1.38;;;0.80;;
60464;SDS011;46314;52.392;9.758;2022-12-29T04:37:59;1.02;;;0.80;;
60464;SDS011;46314;52.392;9.758;2022-12-29T04:40:25;3.03;;;1.00;;
60464;SDS011;46314;52.392;9.758;2022-12-29T04:42:53;2.05;;;0.90;;
60464;SDS011;46314;52.392;9.758;2022-12-29T04:45:20;0.88;;;0.73;;
60464;SDS011;46314;52.392;9.758;2022-12-29T04:47:47;1.10;;;0.80;;
60464;SDS011;46314;52.392;9.758;2022-12-29T04:50:13;0.90;;;0.80;;
60464;SDS011;46314;52.392;9.758;2022-12-29T04:52:39;1.23;;;0.70;;
60464;SDS011;46314;52.392;9.758;2022-12-29T04:55:06;2.42;;;0.88;;
60464;SDS011;46314;52.392;9.758;2022-12-29T04:57:33;1.20;;;0.80;;
60464;SDS011;46314;52.392;9.758;2022-12-29T05:00:01;0.95;;;0.60;;
60464;SDS011;46314;52.392;9.758;2022-12-29T05:02:27;0.82;;;0.60;;
60464;SDS011;46314;52.392;9.758;2022-12-29T05:04:54;1.15;;;0.82;;
60464;SDS011;46314;52.392;9.758;2022-12-29T05:07:20;1.55;;;0.60;;
60464;SDS011;46314;52.392;9.758;2022-12-29T05:09:50;2.10;;;0.60;;
60464;SDS011;46314;52.392;9.758;2022-12-29T05:12:16;1.55;;;0.88;;
60464;SDS011;46314;52.392;9.758;2022-12-29T05:14:43;0.35;;;0.35;;
60464;SDS011;46314;52.392;9.758;2022-12-29T05:17:10;1.35;;;0.50;;
60464;SDS011;46314;52.392;9.758;2022-12-29T05:19:37;0.77;;;0.73;;
60464;SDS011;46314;52.392;9.758;2022-12-29T05:22:03;1.85;;;0.65;;
60464;SDS011;46314;52.392;9.758;2022-12-29T05:24:30;1.00;;;0.68;;
60464;SDS011;46314;52.392;9.758;2022-12-29T05:26:56;1.30;;;0.80;;
60464;SDS011;46314;52.392;9.758;2022-12-29T05:29:22;6.18;;;1.20;;
60464;SDS011;46314;52.392;9.758;2022-12-29T05:31:49;1.05;;;0.60;;
60464;SDS011;46314;52.392;9.758;2022-12-29T05:34:17;1.67;;;0.98;;
60464;SDS011;46314;52.392;9.758;2022-12-29T05:36:43;1.00;;;0.65;;
60464;SDS011;46314;52.392;9.758;2022-12-29T05:39:09;1.45;;;0.70;;
60464;SDS011;46314;52.392;9.758;2022-12-29T05:41:36;3.10;;;0.70;;
60464;SDS011;46314;52.392;9.758;2022-12-29T05:44:02;0.73;;;0.60;;
60464;SDS011;46314;52.392;9.758;2022-12-29T05:46:29;2.72;;;0.70;;
60464;SDS011;46314;52.392;9.758;2022-12-29T05:48:55;0.88;;;0.57;;
60464;SDS011;46314;52.392;9.758;2022-12-29T05:51:23;2.08;;;0.40;;
60464;SDS011;46314;52.392;9.758;2022-12-29T05:53:50;0.43;;;0.43;;
60464;SDS011;46314;52.392;9.758;2022-12-29T05:56:16;2.50;;;0.90;;
60464;SDS011;46314;52.392;9.758;2022-12-29T05:58:43;0.50;;;0.50;;
60464;SDS011;46314;52.392;9.758;2022-12-29T06:01:09;4.30;;;1.35;;
60464;SDS011;46314;52.392;9.758;2022-12-29T06:03:35;2.15;;;0.75;;
60464;SDS011;46314;52.392;9.758;2022-12-29T06:06:02;1.00;;;0.88;;
60464;SDS011;46314;52.392;9.758;2022-12-29T06:08:30;0.73;;;0.70;;
60464;SDS011;46314;52.392;9.758;2022-12-29T06:10:56;2.17;;;0.63;;
60464;SDS011;46314;52.392;9.758;2022-12-29T06:13:23;0.82;;;0.70;;
60464;SDS011;46314;52.392;9.758;2022-12-29T06:15:50;1.42;;;0.70;;
60464;SDS011;46314;52.392;9.758;2022-12-29T06:18:16;0.75;;;0.65;;
60464;SDS011;46314;52.392;9.758;2022-12-29T06:20:45;1.42;;;0.68;;
60464;SDS011;46314;52.392;9.758;2022-12-29T06:23:12;1.42;;;0.88;;
60464;SDS011;46314;52.392;9.758;2022-12-29T06:25:40;1.73;;;0.70;;
60464;SDS011;46314;52.392;9.758;2022-12-29T06:28:06;1.42;;;1.10;;
60464;SDS011;46314;52.392;9.758;2022-12-29T06:30:33;1.33;;;0.75;;
60464;SDS011;46314;52.392;9.758;2022-12-29T06:32:59;0.55;;;0.55;;
60464;SDS011;46314;52.392;9.758;2022-12-29T06:35:26;1.15;;;0.93;;
60464;SDS011;46314;52.392;9.758;2022-12-29T06:37:52;1.17;;;0.60;;
60464;SDS011;46314;52.392;9.758;2022-12-29T06:40:19;1.90;;;0.90;;
60464;SDS011;46314;52.392;9.758;2022-12-29T06:42:47;0.60;;;0.60;;
60464;SDS011;46314;52.392;9.758;2022-12-29T06:45:13;1.90;;;0.70;;
60464;SDS011;46314;52.392;9.758;2022-12-29T06:47:40;1.02;;;0.60;;
60464;SDS011;46314;52.392;9.758;2022-12-29T06:50:06;0.85;;;0.60;;
60464;SDS011;46314;52.392;9.758;2022-12-29T06:52:33;2.05;;;0.77;;
60464;SDS011;46314;52.392;9.758;2022-12-29T06:54:59;1.85;;;0.80;;
60464;SDS011;46314;52.392;9.758;2022-12-29T06:57:26;1.33;;;0.88;;
60464;SDS011;46314;52.392;9.758;2022-12-29T06:59:54;2.42;;;0.80;;
60464;SDS011;46314;52.392;9.758;2022-12-29T07:02:20;0.90;;;0.70;;
60464;SDS011;46314;52.392;9.758;2022-12-29T07:04:47;1.77;;;0.90;;
60464;SDS011;46314;52.392;9.758;2022-12-29T07:07:13;1.15;;;0.70;;
60464;SDS011;46314;52.392;9.758;2022-12-29T07:09:40;0.80;;;0.52;;
60464;SDS011;46314;52.392;9.758;2022-12-29T07:12:06;0.68;;;0.50;;
60464;SDS011;46314;52.392;9.758;2022-12-29T07:14:32;1.38;;;0.55;;
60464;SDS011;46314;52.392;9.758;2022-12-29T07:17:09;0.73;;;0.50;;
60464;SDS011;46314;52.392;9.758;2022-12-29T07:19:36;1.05;;;0.50;;
60464;SDS011;46314;52.392;9.758;2022-12-29T07:22:02;2.40;;;0.47;;
60464;SDS011;46314;52.392;9.758;2022-12-29T07:24:28;1.58;;;0.82;;
60464;SDS011;46314;52.392;9.758;2022-12-29T07:26:55;0.90;;;0.40;;
60464;SDS011;46314;52.392;9.758;2022-12-29T07:29:22;3.75;;;1.27;;
60464;SDS011;46314;52.392;9.758;2022-12-29T07:31:49;2.05;;;1.13;;
60464;SDS011;46314;52.392;9.758;2022-12-29T07:34:17;1.85;;;0.70;;
60464;SDS011;46314;52.392;9.758;2022-12-29T07:36:43;3.70;;;0.60;;
60464;SDS011;46314;52.392;9.758;2022-12-29T07:39:10;1.35;;;0.40;;
60464;SDS011;46314;52.392;9.758;2022-12-29T07:41:36;3.25;;;0.40;;
60464;SDS011;46314;52.392;9.758;2022-12-29T07:44:03;1.42;;;0.40;;
60464;SDS011;46314;52.392;9.758;2022-12-29T07:46:29;0.98;;;0.50;;
60464;SDS011;46314;52.392;9.758;2022-12-29T07:49:17;0.93;;;0.40;;
60464;SDS011;46314;52.392;9.758;2022-12-29T07:51:43;0.88;;;0.35;;
60464;SDS011;46314;52.392;9.758;2022-12-29T07:54:10;4.70;;;0.77;;
60464;SDS011;46314;52.392;9.758;2022-12-29T07:56:36;0.60;;;0.38;;
60464;SDS011;46314;52.392;9.758;2022-12-29T07:59:02;0.65;;;0.40;;
60464;SDS011;46314;52.392;9.758;2022-12-29T08:01:29;1.33;;;0.80;;
60464;SDS011;46314;52.392;9.758;2022-12-29T08:03:55;2.92;;;1.08;;
60464;SDS011;46314;52.392;9.758;2022-12-29T08:06:24;2.13;;;0.57;;
60464;SDS011;46314;52.392;9.758;2022-12-29T08:08:50;0.98;;;0.60;;
60464;SDS011;46314;52.392;9.758;2022-12-29T08:11:19;1.10;;;0.70;;
60464;SDS011;46314;52.392;9.758;2022-12-29T08:13:45;1.30;;;0.60;;
60464;SDS011;46314;52.392;9.758;2022-12-29T08:16:12;1.65;;;1.00;;
60464;SDS011;46314;52.392;9.758;2022-12-29T08:18:38;4.55;;;1.38;;
60464;SDS011;46314;52.392;9.758;2022-12-29T08:21:05;1.95;;;0.93;;
60464;SDS011;46314;52.392;9.758;2022-12-29T08:23:33;1.20;;;0.73;;
60464;SDS011;46314;52.392;9.758;2022-12-29T08:26:01;3.10;;;0.77;;
60464;SDS011;46314;52.392;9.758;2022-12-29T08:28:29;1.52;;;0.65;;
60464;SDS011;46314;52.392;9.758;2022-12-29T08:30:56;2.67;;;1.20;;
60464;SDS011;46314;52.392;9.758;2022-12-29T08:33:23;1.67;;;1.00;;
60464;SDS011;46314;52.392;9.758;2022-12-29T08:35:50;1.13;;;0.70;;
60464;SDS011;46314;52.392;9.758;2022-12-29T08:38:16;2.33;;;0.82;;
60464;SDS011;46314;52.392;9.758;2022-12-29T08:40:44;2.53;;;1.23;;
60464;SDS011;46314;52.392;9.758;2022-12-29T08:43:10;2.35;;;1.17;;
60464;SDS011;46314;52.392;9.758;2022-12-29T08:45:42;4.43;;;1.60;;
60464;SDS011;46314;52.392;9.758;2022-12-29T08:48:08;5.78;;;1.58;;
60464;SDS011;46314;52.392;9.758;2022-12-29T08:50:35;3.20;;;1.73;;
60464;SDS011;46314;52.392;9.758;2022-12-29T08:53:01;5.88;;;1.15;;
60464;SDS011;46314;52.392;9.758;2022-12-29T08:55:28;3.30;;;1.20;;
60464;SDS011;46314;52.392;9.758;2022-12-29T08:57:55;3.33;;;1.35;;
60464;SDS011;46314;52.392;9.758;2022-12-29T09:00:22;6.15;;;1.30;;
60464;SDS011;46314;52.392;9.758;2022-12-29T09:02:49;6.47;;;1.65;;
60464;SDS011;46314;52.392;9.758;2022-12-29T09:05:16;3.33;;;1.70;;
60464;SDS011;46314;52.392;9.758;2022-12-29T09:07:43;4.55;;;1.13;;
60464;SDS011;46314;52.392;9.758;2022-12-29T09:10:09;2.40;;;1.20;;
60464;SDS011;46314;52.392;9.758;2022-12-29T09:12:35;4.82;;;1.40;;
60464;SDS011;46314;52.392;9.758;2022-12-29T09:15:04;5.05;;;1.17;;
60464;SDS011;46314;52.392;9.758;2022-12-29T09:17:32;3.65;;;1.60;;
60464;SDS011;46314;52.392;9.758;2022-12-29T09:19:59;2.92;;;1.70;;
60464;SDS011;46314;52.392;9.758;2022-12-29T09:22:25;5.25;;;1.38;;
60464;SDS011;46314;52.392;9.758;2022-12-29T09:24:51;10.20;;;2.20;;
60464;SDS011;46314;52.392;9.758;2022-12-29T09:27:18;4.57;;;1.70;;
60464;SDS011;46314;52.392;9.758;2022-12-29T09:29:44;3.67;;;1.88;;
60464;SDS011;46314;52.392;9.758;2022-12-29T09:32:12;2.45;;;1.17;;
60464;SDS011;46314;52.392;9.758;2022-12-29T09:34:44;8.35;;;1.60;;
60464;SDS011;46314;52.392;9.758;2022-12-29T09:37:10;2.50;;;1.20;;
60464;SDS011;46314;52.392;9.758;2022-12-29T09:39:36;3.25;;;1.35;;
60464;SDS011;46314;52.392;9.758;2022-12-29T09:42:05;4.75;;;1.90;;
60464;SDS011;46314;52.392;9.758;2022-12-29T09:44:42;4.82;;;1.90;;
60464;SDS011;46314;52.392;9.758;2022-12-29T09:47:22;3.33;;;1.77;;
60464;SDS011;46314;52.392;9.758;2022-12-29T09:49:52;4.57;;;1.50;;
60464;SDS011;46314;52.392;9.758;2022-12-29T09:52:21;2.97;;;1.40;;
60464;SDS011;46314;52.392;9.758;2022-12-29T09:54:51;5.97;;;2.05;;
60464;SDS011;46314;52.392;9.758;2022-12-29T09:57:29;3.15;;;1.48;;
60464;SDS011;46314;52.392;9.758;2022-12-29T10:00:02;3.47;;;2.47;;
60464;SDS011;46314;52.392;9.758;2022-12-29T10:02:36;3.35;;;1.90;;
60464;SDS011;46314;52.392;9.758;2022-12-29T10:05:12;3.03;;;2.38;;
60464;SDS011;46314;52.392;9.758;2022-12-29T10:07:45;3.60;;;1.60;;
60464;SDS011;46314;52.392;9.758;2022-12-29T10:10:22;4.57;;;1.73;;
60464;SDS011;46314;52.392;9.758;2022-12-29T10:13:01;3.30;;;1.95;;
60464;SDS011;46314;52.392;9.758;2022-12-29T10:15:40;3.08;;;1.35;;
60464;SDS011;46314;52.392;9.758;2022-12-29T10:18:31;2.50;;;1.50;;
60464;SDS011;46314;52.392;9.758;2022-12-29T10:21:24;1.73;;;1.30;;
60464;SDS011;46314;52.392;9.758;2022-12-29T10:23:56;2.03;;;1.58;;
60464;SDS011;46314;52.392;9.758;2022-12-29T10:26:26;1.73;;;1.42;;
60464;SDS011;46314;52.392;9.758;2022-12-29T10:28:55;2.05;;;1.75;;
60464;SDS011;46314;52.392;9.758;2022-12-29T10:31:28;2.05;;;1.67;;
60464;SDS011;46314;52.392;9.758;2022-12-29T10:34:02;2.15;;;1.63;;
60464;SDS011;46314;52.392;9.758;2022-12-29T10:36:37;3.40;;;1.58;;
60464;SDS011;46314;52.392;9.758;2022-12-29T10:39:10;3.10;;;1.73;;
60464;SDS011;46314;52.392;9.758;2022-12-29T10:41:44;2.10;;;1.90;;
60464;SDS011;46314;52.392;9.758;2022-12-29T10:44:15;5.15;;;2.28;;
60464;SDS011;46314;52.392;9.758;2022-12-29T10:46:54;3.95;;;1.73;;
60464;SDS011;46314;52.392;9.758;2022-12-29T10:49:25;3.30;;;1.48;;
60464;SDS011;46314;52.392;9.758;2022-12-29T10:51:54;3.75;;;1.92;;
60464;SDS011;46314;52.392;9.758;2022-12-29T10:54:26;2.80;;;1.70;;
60464;SDS011;46314;52.392;9.758;2022-12-29T10:56:56;1.92;;;1.33;;
60464;SDS011;46314;52.392;9.758;2022-12-29T10:59:29;1.77;;;1.38;;
60464;SDS011;46314;52.392;9.758;2022-12-29T11:02:00;3.67;;;1.63;;
60464;SDS011;46314;52.392;9.758;2022-12-29T11:04:45;5.15;;;1.80;;
60464;SDS011;46314;52.392;9.758;2022-12-29T11:07:21;5.55;;;1.55;;
60464;SDS011;46314;52.392;9.758;2022-12-29T11:09:52;6.10;;;1.73;;
60464;SDS011;46314;52.392;9.758;2022-12-29T11:12:20;5.10;;;1.88;;
60464;SDS011;46314;52.392;9.758;2022-12-29T11:14:54;3.88;;;1.65;;
60464;SDS011;46314;52.392;9.758;2022-12-29T11:17:27;5.35;;;2.00;;
60464;SDS011;46314;52.392;9.758;2022-12-29T11:19:55;5.13;;;1.65;;
60464;SDS011;46314;52.392;9.758;2022-12-29T11:22:22;4.03;;;1.77;;
60464;SDS011;46314;52.392;9.758;2022-12-29T11:24:51;7.38;;;2.05;;
60464;SDS011;46314;52.392;9.758;2022-12-29T11:27:19;3.38;;;1.73;;
60464;SDS011;46314;52.392;9.758;2022-12-29T11:29:48;2.95;;;1.45;;
60464;SDS011;46314;52.392;9.758;2022-12-29T11:32:17;4.97;;;1.95;;
60464;SDS011;46314;52.392;9.758;2022-12-29T11:34:53;4.95;;;1.90;;
60464;SDS011;46314;52.392;9.758;2022-12-29T11:37:23;5.65;;;1.83;;
60464;SDS011;46314;52.392;9.758;2022-12-29T11:39:54;6.30;;;1.85;;
60464;SDS011;46314;52.392;9.758;2022-12-29T11:42:28;3.67;;;2.47;;
60464;SDS011;46314;52.392;9.758;2022-12-29T11:45:02;3.85;;;1.75;;
60464;SDS011;46314;52.392;9.758;2022-12-29T11:47:36;4.38;;;2.10;;
60464;SDS011;46314;52.392;9.758;2022-12-29T11:50:04;4.20;;;1.98;;
60464;SDS011;46314;52.392;9.758;2022-12-29T11:52:34;2.95;;;1.98;;
60464;SDS011;46314;52.392;9.758;2022-12-29T11:55:03;6.63;;;1.95;;
60464;SDS011;46314;52.392;9.758;2022-12-29T11:57:33;4.72;;;2.20;;
60464;SDS011;46314;52.392;9.758;2022-12-29T12:00:02;4.80;;;1.45;;
60464;SDS011;46314;52.392;9.758;2022-12-29T12:02:41;4.93;;;1.98;;
60464;SDS011;46314;52.392;9.758;2022-12-29T12:05:18;3.47;;;1.30;;
60464;SDS011;46314;52.392;9.758;2022-12-29T12:07:52;6.32;;;1.63;;
60464;SDS011;46314;52.392;9.758;2022-12-29T12:10:23;4.25;;;1.40;;
60464;SDS011;46314;52.392;9.758;2022-12-29T12:12:56;4.05;;;1.60;;
60464;SDS011;46314;52.392;9.758;2022-12-29T12:15:29;3.00;;;1.40;;
60464;SDS011;46314;52.392;9.758;2022-12-29T12:18:08;6.90;;;1.55;;
60464;SDS011;46314;52.392;9.758;2022-12-29T12:20:39;3.72;;;1.60;;
60464;SDS011;46314;52.392;9.758;2022-12-29T12:23:17;4.00;;;1.42;;
60464;SDS011;46314;52.392;9.758;2022-12-29T12:25:58;2.83;;;1.60;;
60464;SDS011;46314;52.392;9.758;2022-12-29T12:28:33;4.40;;;1.30;;
60464;SDS011;46314;52.392;9.758;2022-12-29T12:31:04;3.17;;;1.02;;
60464;SDS011;46314;52.392;9.758;2022-12-29T12:33:41;9.63;;;2.50;;
60464;SDS011;46314;52.392;9.758;2022-12-29T12:36:14;4.70;;;1.67;;
60464;SDS011;46314;52.392;9.758;2022-12-29T12:38:55;2.70;;;1.42;;
60464;SDS011;46314;52.392;9.758;2022-12-29T12:41:31;4.22;;;2.20;;
60464;SDS011;46314;52.392;9.758;2022-12-29T12:44:10;4.82;;;1.40;;
60464;SDS011;46314;52.392;9.758;2022-12-29T12:46:54;3.88;;;1.55;;
60464;SDS011;46314;52.392;9.758;2022-12-29T12:49:35;5.05;;;1.88;;
60464;SDS011;46314;52.392;9.758;2022-12-29T12:52:22;3.80;;;1.38;;
60464;SDS011;46314;52.392;9.758;2022-12-29T12:55:06;6.25;;;1.90;;
60464;SDS011;46314;52.392;9.758;2022-12-29T12:57:46;6.97;;;1.83;;
60464;SDS011;46314;52.392;9.758;2022-12-29T13:00:19;3.72;;;1.73;;
60464;SDS011;46314;52.392;9.758;2022-12-29T13:02:49;5.70;;;1.83;;
60464;SDS011;46314;52.392;9.758;2022-12-29T13:05:29;6.80;;;1.60;;
60464;SDS011;46314;52.392;9.758;2022-12-29T13:08:19;5.22;;;2.13;;
60464;SDS011;46314;52.392;9.758;2022-12-29T13:11:02;4.97;;;1.63;;
60464;SDS011;46314;52.392;9.758;2022-12-29T13:13:53;4.78;;;1.23;;
60464;SDS011;46314;52.392;9.758;2022-12-29T13:16:41;4.72;;;1.83;;
60464;SDS011;46314;52.392;9.758;2022-12-29T13:19:16;6.55;;;1.80;;
60464;SDS011;46314;52.392;9.758;2022-12-29T13:21:56;6.60;;;1.95;;
60464;SDS011;46314;52.392;9.758;2022-12-29T13:24:34;3.78;;;2.08;;
60464;SDS011;46314;52.392;9.758;2022-12-29T13:27:11;5.15;;;1.92;;
60464;SDS011;46314;52.392;9.758;2022-12-29T13:29:44;3.00;;;1.40;;
60464;SDS011;46314;52.392;9.758;2022-12-29T13:32:19;6.57;;;1.60;;
60464;SDS011;46314;52.392;9.758;2022-12-29T13:34:56;6.28;;;2.25;;
60464;SDS011;46314;52.392;9.758;2022-12-29T13:37:39;3.55;;;2.03;;
60464;SDS011;46314;52.392;9.758;2022-12-29T13:40:14;3.38;;;1.50;;
60464;SDS011;46314;52.392;9.758;2022-12-29T13:42:44;3.75;;;1.38;;
60464;SDS011;46314;52.392;9.758;2022-12-29T13:45:13;7.65;;;1.90;;
60464;SDS011;46314;52.392;9.758;2022-12-29T13:47:44;4.00;;;1.35;;
60464;SDS011;46314;52.392;9.758;2022-12-29T13:50:17;5.38;;;1.60;;
60464;SDS011;46314;52.392;9.758;2022-12-29T13:52:48;5.78;;;1.60;;
60464;SDS011;46314;52.392;9.758;2022-12-29T13:55:20;5.60;;;1.60;;
60464;SDS011;46314;52.392;9.758;2022-12-29T13:57:56;5.10;;;2.05;;
60464;SDS011;46314;52.392;9.758;2022-12-29T14:00:29;5.97;;;1.48;;
60464;SDS011;46314;52.392;9.758;2022-12-29T14:03:11;5.00;;;1.75;;
60464;SDS011;46314;52.392;9.758;2022-12-29T14:06:11;5.05;;;1.73;;
60464;SDS011;46314;52.392;9.758;2022-12-29T14:08:40;7.78;;;1.80;;
60464;SDS011;46314;52.392;9.758;2022-12-29T14:11:07;6.88;;;1.77;;
60464;SDS011;46314;52.392;9.758;2022-12-29T14:13:38;3.20;;;1.30;;
60464;SDS011;46314;52.392;9.758;2022-12-29T14:16:07;3.38;;;1.50;;
60464;SDS011;46314;52.392;9.758;2022-12-29T14:18:41;5.18;;;1.80;;
60464;SDS011;46314;52.392;9.758;2022-12-29T14:21:10;6.28;;;2.00;;
60464;SDS011;46314;52.392;9.758;2022-12-29T14:23:45;5.47;;;2.15;;
60464;SDS011;46314;52.392;9.758;2022-12-29T14:26:14;4.60;;;1.63;;
60464;SDS011;46314;52.392;9.758;2022-12-29T14:28:44;4.05;;;1.90;;
60464;SDS011;46314;52.392;9.758;2022-12-29T14:34:15;4.05;;;1.77;;
60464;SDS011;46314;52.392;9.758;2022-12-29T14:36:56;4.75;;;2.30;;
60464;SDS011;46314;52.392;9.758;2022-12-29T14:39:29;4.00;;;1.40;;
60464;SDS011;46314;52.392;9.758;2022-12-29T14:42:01;4.97;;;2.30;;
60464;SDS011;46314;52.392;9.758;2022-12-29T14:44:31;9.98;;;1.90;;
60464;SDS011;46314;52.392;9.758;2022-12-29T14:46:59;4.13;;;1.83;;
60464;SDS011;46314;52.392;9.758;2022-12-29T14:49:31;6.35;;;2.20;;
60464;SDS011;46314;52.392;9.758;2022-12-29T14:52:06;5.47;;;2.10;;
60464;SDS011;46314;52.392;9.758;2022-12-29T14:54:42;6.70;;;2.13;;
60464;SDS011;46314;52.392;9.758;2022-12-29T15:00:13;5.35;;;2.47;;
60464;SDS011;46314;52.392;9.758;2022-12-29T15:02:45;6.32;;;2.30;;
60464;SDS011;46314;52.392;9.758;2022-12-29T15:07:59;7.05;;;2.03;;
60464;SDS011;46314;52.392;9.758;2022-12-29T15:10:27;4.60;;;1.70;;
60464;SDS011;46314;52.392;9.758;2022-12-29T15:13:02;3.90;;;1.80;;
60464;SDS011;46314;52.392;9.758;2022-12-29T15:15:36;3.20;;;2.03;;
60464;SDS011;46314;52.392;9.758;2022-12-29T15:18:23;6.25;;;1.80;;